Time;durP1;ratioP1;P1;durP2;ratioP2;P2;SDS_P1;SDS_P2;PMS_P1;PMS_P2;Temp;Humidity;BMP_temperature;BMP_pressure;BME280_temperature;BME280_humidity;BME280_pressure;Samples;Min_cycle;Max_cycle;Signal;HPM_P1;HPM_P2
2022/11/23 00:00:56;;;;;;;0.20;0.20;;;;;;;6.65;92.04;94196.50;4386321;32;20284;-58
2022/11/23 00:03:22;;;;;;;0.27;0.27;;;;;;;6.50;92.38;94188.91;4376495;32;20299;-58
2022/11/23 00:05:49;;;;;;;0.43;0.40;;;;;;;6.71;92.67;94197.94;4371117;32;20258;-59
2022/11/23 00:08:16;;;;;;;1.20;0.77;;;;;;;6.73;92.06;94195.03;4374481;32;20292;-58
2022/11/23 00:10:42;;;;;;;0.20;0.20;;;;;;;6.80;92.01;94192.78;4372451;32;20346;-59
2022/11/23 00:13:09;;;;;;;0.30;0.30;;;;;;;6.69;92.54;94199.31;4384938;32;20352;-58
2022/11/23 00:15:39;;;;;;;1.10;1.00;;;;;;;6.81;92.06;94197.75;4378604;32;20295;-60
2022/11/23 00:18:05;;;;;;;0.00;0.00;;;;;;;6.88;91.58;94190.19;4388339;32;20219;-59
2022/11/23 00:20:31;;;;;;;0.30;0.30;;;;;;;6.81;92.04;94205.66;4385810;32;20276;-59
2022/11/23 00:22:59;;;;;;;0.50;0.40;;;;;;;6.69;92.54;94199.31;4366410;32;20252;-59
2022/11/23 00:25:29;;;;;;;0.30;0.30;;;;;;;6.85;92.54;94187.41;4371240;32;20277;-59
2022/11/23 00:27:56;;;;;;;0.40;0.40;;;;;;;6.95;92.25;94191.66;4375140;32;20314;-59
2022/11/23 00:30:23;;;;;;;0.50;0.50;;;;;;;6.81;92.77;94183.78;4358037;32;20273;-59
2022/11/23 00:32:48;;;;;;;0.87;0.67;;;;;;;6.89;92.19;94190.97;4367762;32;20280;-59
2022/11/23 00:35:16;;;;;;;0.00;0.00;;;;;;;6.94;91.76;94192.72;4377813;32;20314;-58
2022/11/23 00:37:44;;;;;;;0.30;0.30;;;;;;;6.94;91.84;94198.00;4379488;32;20214;-59
2022/11/23 00:40:11;;;;;;;0.40;0.40;;;;;;;6.96;91.84;94193.22;4364852;32;20289;-59
2022/11/23 00:42:36;;;;;;;0.30;0.30;;;;;;;6.71;92.80;94197.94;4375150;32;20284;-59
2022/11/23 00:45:03;;;;;;;0.50;0.50;;;;;;;6.76;93.28;94189.94;4362135;32;20296;-59
2022/11/23 00:47:28;;;;;;;0.10;0.10;;;;;;;6.91;93.50;94191.47;4368527;32;20185;-59
2022/11/23 00:49:56;;;;;;;0.33;0.33;;;;;;;6.96;92.15;94194.00;4375744;32;20450;-59
2022/11/23 00:52:23;;;;;;;0.57;0.57;;;;;;;7.02;91.90;94192.03;4374509;32;20209;-58
2022/11/23 00:54:50;;;;;;;0.40;0.40;;;;;;;7.01;91.81;94191.25;4362674;32;20333;-58
2022/11/23 00:57:17;;;;;;;0.43;0.43;;;;;;;7.16;91.04;94182.19;4378527;32;20314;-58
2022/11/23 00:59:44;;;;;;;4.63;0.40;;;;;;;6.85;91.67;94196.09;4368150;32;20381;-58
2022/11/23 01:02:10;;;;;;;0.40;0.40;;;;;;;6.65;92.57;94190.47;4349807;32;20318;-59
2022/11/23 01:04:40;;;;;;;0.57;0.57;;;;;;;6.80;92.35;94193.56;4368567;32;20340;-59
2022/11/23 01:07:06;;;;;;;0.30;0.30;;;;;;;7.07;91.35;94187.41;4351916;32;20344;-59
2022/11/23 01:09:32;;;;;;;0.20;0.20;;;;;;;6.94;91.73;94190.09;4366510;32;20292;-58
2022/11/23 01:11:59;;;;;;;0.30;0.30;;;;;;;6.74;91.94;94194.72;4371037;32;20184;-58
2022/11/23 01:14:26;;;;;;;0.10;0.10;;;;;;;6.93;92.04;94193.81;4374972;32;20295;-59
2022/11/23 01:16:54;;;;;;;1.33;0.80;;;;;;;7.03;91.23;94188.31;4375623;32;20299;-58
2022/11/23 01:19:21;;;;;;;0.70;0.50;;;;;;;6.86;91.85;94194.97;4386903;32;20281;-59
2022/11/23 01:21:50;;;;;;;0.10;0.10;;;;;;;6.93;92.24;94193.81;4363753;32;20284;-58
2022/11/23 01:24:19;;;;;;;0.50;0.50;;;;;;;7.14;91.21;94192.25;4351280;32;20352;-59
2022/11/23 01:26:53;;;;;;;0.10;0.10;;;;;;;6.92;91.65;94198.28;4343768;32;20289;-59
2022/11/23 01:29:19;;;;;;;0.20;0.20;;;;;;;7.01;92.07;94190.47;4364708;32;20302;-59
2022/11/23 01:31:49;;;;;;;0.40;0.40;;;;;;;7.09;91.61;94202.91;4370715;32;20336;-58
2022/11/23 01:34:18;;;;;;;1.50;0.73;;;;;;;7.07;91.79;94199.78;4372791;32;20375;-58
2022/11/23 01:36:44;;;;;;;0.90;0.50;;;;;;;6.98;92.13;94201.59;4365411;32;20324;-58
2022/11/23 01:39:11;;;;;;;0.73;0.73;;;;;;;7.04;91.92;94203.06;4388684;32;20292;-59
2022/11/23 01:41:40;;;;;;;0.57;0.57;;;;;;;6.96;92.24;94203.75;4374162;32;20318;-63
2022/11/23 01:44:27;;;;;;;0.70;0.70;;;;;;;7.05;92.20;94196.72;4371894;32;20242;-59
2022/11/23 01:46:56;;;;;;;0.50;0.50;;;;;;;6.88;92.82;94198.09;4363938;32;20304;-58
2022/11/23 01:49:38;;;;;;;0.60;0.40;;;;;;;7.07;92.04;94202.44;4359228;32;20319;-58
2022/11/23 01:52:16;;;;;;;0.60;0.60;;;;;;;7.09;91.74;94210.81;4384438;32;20292;-58
2022/11/23 01:54:53;;;;;;;0.20;0.20;;;;;;;7.10;91.96;94204.47;4351723;32;20284;-58
2022/11/23 01:57:26;;;;;;;0.43;0.40;;;;;;;7.20;91.39;94205.03;4386526;32;20288;-59
2022/11/23 01:59:54;;;;;;;0.20;0.20;;;;;;;7.08;91.50;94222.44;4372950;32;20296;-59
2022/11/23 02:02:21;;;;;;;0.83;0.43;;;;;;;7.04;92.14;94218.88;4375283;32;20320;-58
2022/11/23 02:04:51;;;;;;;0.20;0.20;;;;;;;7.16;91.11;94219.12;4361636;32;20332;-58
2022/11/23 02:07:19;;;;;;;0.33;0.33;;;;;;;6.99;91.62;94216.34;4381025;32;20283;-58
2022/11/23 02:09:47;;;;;;;0.20;0.20;;;;;;;6.80;92.69;94229.66;4372514;32;20276;-59
2022/11/23 02:12:13;;;;;;;0.47;0.47;;;;;;;7.04;91.98;94218.88;4369689;32;20308;-59
2022/11/23 02:14:48;;;;;;;0.50;0.50;;;;;;;6.80;92.31;94227.81;4381290;32;20303;-59
2022/11/23 02:17:15;;;;;;;0.70;0.70;;;;;;;6.74;92.92;94223.72;4384499;32;20296;-58
2022/11/23 02:20:02;;;;;;;0.30;0.30;;;;;;;6.82;92.67;94223.03;4359114;32;20272;-59
2022/11/23 02:23:07;;;;;;;0.30;0.30;;;;;;;6.65;93.08;94222.84;4368550;32;20275;-59
2022/11/23 02:26:09;;;;;;;0.43;0.43;;;;;;;6.79;92.85;94220.97;4371652;32;20280;-58
2022/11/23 02:28:44;;;;;;;0.10;0.10;;;;;;;6.78;92.95;94223.91;4366539;32;20294;-62
2022/11/23 02:31:16;;;;;;;0.10;0.10;;;;;;;6.74;92.50;94218.44;4350573;32;20280;-58
2022/11/23 02:33:42;;;;;;;0.33;0.30;;;;;;;6.64;92.41;94218.69;4366998;32;20311;-59
2022/11/23 02:36:37;;;;;;;5.50;0.53;;;;;;;6.61;92.74;94218.47;4382761;32;20316;-59
2022/11/23 02:39:11;;;;;;;0.30;0.30;;;;;;;6.68;92.63;94214.34;4379705;32;20181;-58
2022/11/23 02:41:39;;;;;;;1.47;0.20;;;;;;;6.56;92.81;94208.81;4384036;32;20312;-58
2022/11/23 02:44:09;;;;;;;0.17;0.17;;;;;;;6.54;92.75;94213.59;4376871;32;20308;-61
2022/11/23 02:46:37;;;;;;;0.30;0.30;;;;;;;6.57;92.57;94213.00;4385867;32;20288;-60
2022/11/23 02:49:02;;;;;;;0.77;0.77;;;;;;;6.61;93.01;94213.22;4380256;32;20272;-58
2022/11/23 02:51:28;;;;;;;0.30;0.30;;;;;;;6.73;92.23;94219.53;4375706;32;20295;-59
2022/11/23 02:53:59;;;;;;;0.40;0.40;;;;;;;6.49;92.52;94213.69;4384134;32;20271;-59
2022/11/23 02:56:25;;;;;;;1.17;0.70;;;;;;;6.40;93.20;94210.22;4364302;32;20382;-58
2022/11/23 02:58:53;;;;;;;0.13;0.13;;;;;;;6.48;92.92;94215.56;4390347;32;20308;-58
2022/11/23 03:01:18;;;;;;;0.33;0.33;;;;;;;6.60;92.14;94212.44;4360713;32;20236;-58
2022/11/23 03:03:46;;;;;;;0.23;0.23;;;;;;;6.63;91.84;94217.13;4370079;32;20268;-58
2022/11/23 03:06:17;;;;;;;0.50;0.50;;;;;;;6.66;91.74;94216.50;4370867;32;20273;-59
2022/11/23 03:08:45;;;;;;;0.47;0.30;;;;;;;6.57;91.64;94220.91;4357665;32;20331;-58
2022/11/23 03:11:11;;;;;;;0.10;0.10;;;;;;;6.68;91.42;94224.91;4368421;32;20324;-59
2022/11/23 03:13:36;;;;;;;0.63;0.63;;;;;;;6.65;91.54;94227.38;4373814;32;20280;-58
2022/11/23 03:16:04;;;;;;;0.57;0.50;;;;;;;6.57;91.93;94222.78;4368868;32;20291;-58
2022/11/23 03:18:32;;;;;;;0.30;0.30;;;;;;;6.52;92.29;94221.03;4370475;32;20181;-58
2022/11/23 03:21:07;;;;;;;0.57;0.40;;;;;;;6.46;92.48;94228.22;4365397;32;20291;-58
2022/11/23 03:23:36;;;;;;;0.37;0.37;;;;;;;6.38;92.75;94225.53;4342193;32;20314;-64
2022/11/23 03:26:03;;;;;;;1.83;0.60;;;;;;;6.17;93.68;94223.28;4366535;32;20311;-58
2022/11/23 03:28:30;;;;;;;0.70;0.43;;;;;;;6.14;93.81;94234.41;4338326;32;20303;-58
2022/11/23 03:30:56;;;;;;;0.30;0.30;;;;;;;6.20;93.45;94229.81;4359952;32;20291;-58
2022/11/23 03:33:23;;;;;;;0.10;0.10;;;;;;;6.21;93.42;94228.75;4343165;32;20280;-58
2022/11/23 03:35:49;;;;;;;0.20;0.20;;;;;;;6.20;93.33;94230.59;4389128;32;20288;-58
2022/11/23 03:38:16;;;;;;;0.20;0.20;;;;;;;6.19;93.22;94229.03;4363881;32;20277;-58
2022/11/23 03:40:44;;;;;;;0.23;0.23;;;;;;;6.14;93.14;94229.13;4364384;32;20335;-59
2022/11/23 03:43:13;;;;;;;0.30;0.30;;;;;;;6.09;93.80;94225.81;4363533;32;20300;-58
2022/11/23 03:45:41;;;;;;;0.30;0.30;;;;;;;6.09;93.65;94221.31;4376315;32;20285;-58
2022/11/23 03:48:07;;;;;;;0.17;0.17;;;;;;;6.15;93.47;94217.53;4358820;32;20288;-59
2022/11/23 03:50:33;;;;;;;0.20;0.20;;;;;;;6.19;92.84;94218.50;4364739;32;20309;-58
2022/11/23 03:53:01;;;;;;;0.10;0.10;;;;;;;6.02;93.68;94223.56;4377615;32;20250;-59
2022/11/23 03:55:28;;;;;;;0.20;0.20;;;;;;;6.12;93.67;94219.97;4374189;32;20272;-58
2022/11/23 03:57:58;;;;;;;0.27;0.27;;;;;;;6.11;93.66;94223.66;4374344;32;20383;-59
2022/11/23 04:00:45;;;;;;;0.20;0.20;;;;;;;6.04;93.37;94216.16;4387524;32;20377;-58
2022/11/23 04:03:11;;;;;;;0.50;0.50;;;;;;;6.05;93.34;94215.06;4374061;32;20281;-58
2022/11/23 04:05:36;;;;;;;0.10;0.10;;;;;;;6.16;93.38;94213.81;4347633;32;20285;-59
2022/11/23 04:08:03;;;;;;;1.20;0.87;;;;;;;6.03;93.14;94206.69;4336557;32;20198;-58
2022/11/23 04:10:29;;;;;;;9.50;0.63;;;;;;;6.10;93.25;94209.72;4357131;32;20210;-57
2022/11/23 04:12:56;;;;;;;0.10;0.10;;;;;;;5.81;94.15;94217.88;4363371;32;20369;-57
2022/11/23 04:15:22;;;;;;;0.00;0.00;;;;;;;5.89;93.96;94213.00;4376732;32;20303;-58
2022/11/23 04:17:49;;;;;;;0.60;0.37;;;;;;;6.08;93.31;94211.84;4366946;32;20292;-58
2022/11/23 04:20:15;;;;;;;0.20;0.20;;;;;;;5.94;93.29;94208.44;4354253;32;20281;-58
2022/11/23 04:22:41;;;;;;;0.00;0.00;;;;;;;5.92;93.41;94201.91;4359266;32;20271;-58
2022/11/23 04:25:07;;;;;;;0.30;0.30;;;;;;;5.86;93.38;94203.81;4373927;32;20379;-57
2022/11/23 04:27:36;;;;;;;0.20;0.20;;;;;;;5.84;93.54;94212.00;4371911;32;20180;-58
2022/11/23 04:30:04;;;;;;;0.43;0.43;;;;;;;5.89;93.42;94216.44;4359189;32;20284;-58
2022/11/23 04:32:31;;;;;;;0.30;0.30;;;;;;;5.74;93.59;94214.03;4369894;32;20303;-58
2022/11/23 04:34:56;;;;;;;1.50;0.30;;;;;;;5.79;94.38;94220.00;4352639;32;20360;-58
2022/11/23 04:37:22;;;;;;;0.40;0.40;;;;;;;5.89;93.82;94216.44;4361492;32;20340;-58
2022/11/23 04:39:48;;;;;;;0.37;0.37;;;;;;;5.77;93.96;94216.09;4383701;32;20195;-58
2022/11/23 04:42:15;;;;;;;0.47;0.33;;;;;;;5.81;93.98;94212.59;4382138;32;20293;-58
2022/11/23 04:44:41;;;;;;;0.20;0.20;;;;;;;5.87;93.65;94210.63;4348680;32;20296;-58
2022/11/23 04:47:13;;;;;;;0.13;0.13;;;;;;;5.98;92.93;94214.69;4379396;32;20311;-57
2022/11/23 04:49:39;;;;;;;1.10;0.30;;;;;;;5.92;93.04;94202.69;4371783;32;20289;-58
2022/11/23 04:52:06;;;;;;;0.33;0.33;;;;;;;5.92;93.18;94212.44;4347273;32;20289;-59
2022/11/23 04:54:32;;;;;;;0.27;0.27;;;;;;;5.94;92.78;94207.66;4368167;32;20276;-58
2022/11/23 04:57:00;;;;;;;0.47;0.47;;;;;;;6.00;92.48;94215.19;4352122;32;20340;-58
2022/11/23 04:59:26;;;;;;;0.67;0.50;;;;;;;5.83;92.88;94209.66;4360967;32;20243;-58
2022/11/23 05:01:52;;;;;;;0.50;0.50;;;;;;;5.69;93.89;94208.87;4379439;32;20321;-58
2022/11/23 05:04:21;;;;;;;0.00;0.00;;;;;;;5.92;92.96;94202.69;4376893;32;20273;-58
2022/11/23 05:06:48;;;;;;;0.33;0.33;;;;;;;6.00;92.36;94199.41;4376923;32;20287;-58
2022/11/23 05:09:18;;;;;;;0.10;0.10;;;;;;;6.09;92.02;94192.37;4381588;32;20323;-58
2022/11/23 05:11:44;;;;;;;0.70;0.53;;;;;;;5.85;92.64;94191.72;4385701;32;20311;-58
2022/11/23 05:14:10;;;;;;;0.80;0.60;;;;;;;5.82;92.95;94193.09;4349027;32;20273;-58
2022/11/23 05:16:36;;;;;;;0.20;0.20;;;;;;;5.80;93.55;94194.47;4374163;32;20346;-57
2022/11/23 05:19:01;;;;;;;0.63;0.57;;;;;;;5.77;93.48;94189.78;4373045;32;20360;-60
2022/11/23 05:21:30;;;;;;;0.10;0.10;;;;;;;6.11;92.18;94195.47;4375155;32;20255;-58
2022/11/23 05:23:56;;;;;;;0.50;0.50;;;;;;;5.92;92.63;94192.16;4382010;32;20296;-59
2022/11/23 05:26:23;;;;;;;0.53;0.53;;;;;;;5.79;93.50;94192.91;4369096;32;20325;-58
2022/11/23 05:28:51;;;;;;;0.37;0.37;;;;;;;5.83;93.68;94194.66;4370635;32;20326;-57
2022/11/23 05:31:16;;;;;;;0.37;0.37;;;;;;;5.90;93.50;94194.31;4382592;32;20287;-58
2022/11/23 05:33:43;;;;;;;0.60;0.60;;;;;;;5.98;93.33;94193.63;4372428;32;20288;-58
2022/11/23 05:36:12;;;;;;;0.30;0.30;;;;;;;6.06;93.20;94195.56;4370853;32;20215;-58
2022/11/23 05:38:40;;;;;;;1.03;0.40;;;;;;;6.11;92.43;94189.44;4371567;32;20285;-58
2022/11/23 05:41:06;;;;;;;0.40;0.40;;;;;;;5.85;93.18;94186.47;4365678;32;20318;-58
2022/11/23 05:43:33;;;;;;;0.20;0.20;;;;;;;5.98;93.35;94190.22;4366981;32;20303;-58
2022/11/23 05:46:05;;;;;;;0.10;0.10;;;;;;;5.99;93.06;94187.31;4361274;32;20284;-59
2022/11/23 05:48:33;;;;;;;0.53;0.53;;;;;;;6.02;92.69;94191.22;4352745;32;20284;-58
2022/11/23 05:51:02;;;;;;;0.10;0.10;;;;;;;6.11;92.33;94187.59;4384987;32;20365;-58
2022/11/23 05:53:29;;;;;;;0.43;0.43;;;;;;;5.95;92.56;94190.81;4372165;32;20290;-58
2022/11/23 05:55:59;;;;;;;0.10;0.10;;;;;;;6.01;92.91;94189.66;4383269;32;20411;-58
2022/11/23 05:58:24;;;;;;;0.10;0.10;;;;;;;5.88;93.42;94185.87;4379625;32;20358;-57
2022/11/23 06:00:51;;;;;;;0.50;0.37;;;;;;;6.13;92.83;94185.44;4341487;32;20342;-58
2022/11/23 06:03:17;;;;;;;1.70;0.60;;;;;;;6.31;91.60;94185.63;4368889;32;20219;-58
2022/11/23 06:05:54;;;;;;;0.10;0.10;;;;;;;6.23;91.56;94188.97;4385590;32;20301;-58
2022/11/23 06:08:22;;;;;;;0.10;0.10;;;;;;;6.14;92.19;94188.84;4354801;32;20325;-58
2022/11/23 06:10:49;;;;;;;0.23;0.23;;;;;;;6.07;92.15;94189.25;4369679;32;20346;-58
2022/11/23 06:13:18;;;;;;;0.70;0.50;;;;;;;5.79;93.65;94190.28;4388848;32;20334;-58
2022/11/23 06:15:44;;;;;;;0.27;0.27;;;;;;;5.66;94.45;94185.75;4378506;32;20360;-58
2022/11/23 06:18:10;;;;;;;0.13;0.13;;;;;;;5.78;94.46;94188.72;4350828;32;20284;-57
2022/11/23 06:20:35;;;;;;;0.83;0.43;;;;;;;5.89;94.01;94191.97;4375110;32;20199;-58
2022/11/23 06:23:03;;;;;;;0.40;0.40;;;;;;;5.74;93.90;94198.25;4388869;32;20284;-57
2022/11/23 06:25:28;;;;;;;2.47;0.67;;;;;;;5.77;94.19;94190.56;4376348;32;20230;-57
2022/11/23 06:27:59;;;;;;;0.30;0.30;;;;;;;5.79;93.91;94192.91;4376958;32;20356;-57
2022/11/23 06:30:28;;;;;;;0.20;0.20;;;;;;;5.76;93.60;94189.00;4361624;32;20255;-57
2022/11/23 06:32:56;;;;;;;0.30;0.30;;;;;;;5.65;94.01;94195.50;4341070;32;24055;-57
2022/11/23 06:35:26;;;;;;;0.10;0.10;;;;;;;5.69;93.80;94191.22;4368718;32;20288;-58
2022/11/23 06:37:53;;;;;;;0.20;0.20;;;;;;;5.65;94.07;94197.34;4364636;32;20276;-57
2022/11/23 06:40:19;;;;;;;0.20;0.20;;;;;;;5.45;94.80;94199.25;4365695;32;20293;-58
2022/11/23 06:42:46;;;;;;;0.93;0.93;;;;;;;5.59;94.69;94190.63;4362184;32;20285;-58
2022/11/23 06:45:13;;;;;;;0.10;0.10;;;;;;;5.80;94.06;94195.25;4371191;32;20199;-58
2022/11/23 06:47:40;;;;;;;0.40;0.40;;;;;;;5.82;93.90;94200.19;4367331;32;20412;-58
2022/11/23 06:50:13;;;;;;;0.20;0.20;;;;;;;5.94;93.20;94202.41;4358531;32;20410;-58
2022/11/23 06:52:38;;;;;;;0.10;0.10;;;;;;;5.97;92.91;94199.19;4349612;32;20285;-59
2022/11/23 06:55:08;;;;;;;13.40;0.93;;;;;;;5.94;92.56;94211.09;4374026;32;20288;-58
2022/11/23 06:57:35;;;;;;;0.40;0.30;;;;;;;5.89;92.59;94205.91;4358395;32;20244;-58
2022/11/23 07:00:04;;;;;;;0.40;0.40;;;;;;;5.93;93.01;94211.38;4369493;32;20288;-58
2022/11/23 07:02:31;;;;;;;1.93;0.57;;;;;;;5.96;92.32;94208.94;4372570;32;20285;-58
2022/11/23 07:04:58;;;;;;;0.40;0.40;;;;;;;6.05;92.39;94212.44;4329330;32;20305;-59
2022/11/23 07:07:26;;;;;;;0.63;0.63;;;;;;;6.27;91.28;94217.03;4361889;32;20319;-58
2022/11/23 07:09:51;;;;;;;0.47;0.47;;;;;;;6.33;90.84;94213.22;4367745;32;20276;-59
2022/11/23 07:12:17;;;;;;;0.67;0.67;;;;;;;6.18;91.20;94211.69;4367307;32;20292;-60
2022/11/23 07:14:46;;;;;;;0.40;0.37;;;;;;;6.26;90.87;94217.31;4367529;32;20188;-58
2022/11/23 07:17:11;;;;;;;0.20;0.20;;;;;;;6.20;91.18;94219.28;4376746;32;20181;-58
2022/11/23 07:19:40;;;;;;;0.63;0.63;;;;;;;5.93;91.97;94225.31;4366019;32;20310;-58
2022/11/23 07:22:09;;;;;;;0.20;0.20;;;;;;;6.09;92.02;94229.22;4352275;32;20208;-58
2022/11/23 07:24:34;;;;;;;1.27;0.43;;;;;;;6.14;90.88;94225.72;4354921;32;20381;-60
2022/11/23 07:27:01;;;;;;;0.33;0.33;;;;;;;6.17;90.77;94225.91;4367979;32;20292;-58
2022/11/23 07:29:27;;;;;;;0.20;0.20;;;;;;;6.37;90.20;94231.87;4357507;32;20193;-58
2022/11/23 07:31:54;;;;;;;0.93;0.53;;;;;;;6.24;90.70;94232.63;4350330;32;20390;-58
2022/11/23 07:34:21;;;;;;;0.00;0.00;;;;;;;6.41;90.63;94233.63;4370409;32;20277;-58
2022/11/23 07:36:48;;;;;;;0.23;0.23;;;;;;;6.43;90.34;94239.37;4358554;32;20296;-58
2022/11/23 07:39:14;;;;;;;0.83;0.83;;;;;;;6.51;90.13;94245.81;4370311;32;20347;-58
2022/11/23 07:41:39;;;;;;;1.03;0.43;;;;;;;6.45;90.39;94237.22;4366616;32;20375;-58
2022/11/23 07:44:06;;;;;;;0.83;0.83;;;;;;;6.36;90.21;94248.75;4367934;32;20297;-59
2022/11/23 07:46:33;;;;;;;0.57;0.27;;;;;;;6.45;90.38;94245.13;4370350;32;20201;-58
2022/11/23 07:49:01;;;;;;;0.47;0.47;;;;;;;6.64;89.34;94255.56;4352214;32;20371;-57
2022/11/23 07:51:28;;;;;;;1.03;0.57;;;;;;;6.47;89.80;94250.88;4384250;32;20330;-58
2022/11/23 07:53:56;;;;;;;0.50;0.50;;;;;;;6.44;89.75;94250.69;4360496;32;20415;-58
2022/11/23 07:56:22;;;;;;;0.20;0.20;;;;;;;6.55;89.86;94254.69;4362498;32;20303;-58
2022/11/23 07:58:50;;;;;;;0.20;0.20;;;;;;;6.46;89.98;94254.56;4366889;32;20284;-57
2022/11/23 08:01:19;;;;;;;0.23;0.23;;;;;;;6.76;88.76;94257.69;4381590;32;20383;-58
2022/11/23 08:03:48;;;;;;;0.30;0.30;;;;;;;6.84;88.62;94259.63;4380027;32;20284;-52
2022/11/23 08:06:18;;;;;;;0.17;0.17;;;;;;;6.97;87.92;94266.72;4374019;32;20269;-55
2022/11/23 08:08:46;;;;;;;0.37;0.37;;;;;;;7.13;86.84;94261.91;4377549;32;20314;-57
2022/11/23 08:11:17;;;;;;;0.10;0.10;;;;;;;6.85;87.57;94267.25;4382193;32;20324;-57
2022/11/23 08:13:44;;;;;;;0.20;0.20;;;;;;;6.61;88.68;94264.06;4371816;32;20291;-52
2022/11/23 08:16:10;;;;;;;0.30;0.30;;;;;;;7.02;87.70;94265.84;4364521;32;20280;-56
2022/11/23 08:18:38;;;;;;;0.23;0.23;;;;;;;7.11;87.33;94264.84;4369117;32;20278;-58
2022/11/23 08:21:03;;;;;;;0.30;0.30;;;;;;;6.80;88.20;94272.62;4384531;32;20252;-57
2022/11/23 08:23:33;;;;;;;0.40;0.40;;;;;;;6.92;87.95;94271.31;4374697;32;20422;-55
2022/11/23 08:26:02;;;;;;;0.00;0.00;;;;;;;6.86;88.37;94271.41;4382783;32;20196;-57
2022/11/23 08:28:30;;;;;;;0.50;0.50;;;;;;;7.14;87.82;94269.50;4374424;32;20405;-57
2022/11/23 08:30:56;;;;;;;8.23;0.40;;;;;;;7.35;86.65;94274.34;4347490;32;20304;-51
2022/11/23 08:33:22;;;;;;;0.07;0.07;;;;;;;7.39;86.32;94268.19;4384085;32;20316;-58
2022/11/23 08:35:49;;;;;;;0.17;0.17;;;;;;;7.34;86.37;94264.88;4354201;32;20381;-53
2022/11/23 08:38:16;;;;;;;0.33;0.33;;;;;;;7.63;85.91;94259.97;4352240;32;20334;-54
2022/11/23 08:40:43;;;;;;;2.73;0.77;;;;;;;7.68;85.56;94257.22;4360329;32;20347;-58
2022/11/23 08:43:11;;;;;;;0.37;0.37;;;;;;;7.86;84.53;94260.75;4365896;32;20326;-58
2022/11/23 08:45:39;;;;;;;0.10;0.10;;;;;;;8.09;83.71;94256.97;4376349;32;20334;-56
2022/11/23 08:48:05;;;;;;;0.07;0.07;;;;;;;7.89;83.79;94268.06;4364719;32;20293;-52
2022/11/23 08:50:40;;;;;;;9.10;0.70;;;;;;;8.12;83.36;94264.28;4362929;32;20288;-54
2022/11/23 08:53:06;;;;;;;0.33;0.33;;;;;;;8.07;82.85;94256.50;4369400;32;20188;-55
2022/11/23 08:55:58;;;;;;;0.40;0.40;;;;;;;8.25;82.67;94263.44;4368173;32;20300;-55
2022/11/23 08:58:25;;;;;;;0.20;0.20;;;;;;;8.03;83.56;94265.31;4369286;32;20204;-52
2022/11/23 09:00:52;;;;;;;0.40;0.40;;;;;;;8.30;82.47;94274.94;4360065;32;20415;-53
2022/11/23 09:03:20;;;;;;;3.10;0.87;;;;;;;8.15;83.21;94270.81;4352185;32;20289;-55
2022/11/23 09:05:49;;;;;;;0.77;0.77;;;;;;;8.09;83.01;94269.41;4361444;32;20193;-56
2022/11/23 09:08:18;;;;;;;0.37;0.37;;;;;;;8.05;83.54;94266.59;4351193;32;20364;-55
2022/11/23 09:10:44;;;;;;;0.37;0.37;;;;;;;8.13;83.42;94265.84;4372099;32;20298;-53
2022/11/23 09:13:12;;;;;;;0.40;0.40;;;;;;;8.42;83.45;94267.25;4374901;32;20326;-54
2022/11/23 09:15:37;;;;;;;1.30;0.33;;;;;;;8.47;82.83;94261.81;4367538;32;20193;-53
2022/11/23 09:18:04;;;;;;;0.37;0.37;;;;;;;8.46;82.64;94265.56;4374467;32;20300;-57
2022/11/23 09:20:29;;;;;;;0.23;0.23;;;;;;;8.39;82.45;94259.91;4356473;32;20255;-53
2022/11/23 09:23:01;;;;;;;0.63;0.63;;;;;;;8.70;81.55;94254.59;4341395;32;20220;-52
2022/11/23 09:25:28;;;;;;;0.10;0.10;;;;;;;9.08;79.67;94254.81;4360026;32;20203;-52
2022/11/23 09:27:59;;;;;;;0.60;0.60;;;;;;;8.96;79.95;94261.47;4364304;32;20189;-55
2022/11/23 09:30:26;;;;;;;0.73;0.47;;;;;;;8.82;79.96;94268.00;4355784;32;20231;-57
2022/11/23 09:32:55;;;;;;;0.60;0.60;;;;;;;8.77;81.24;94263.63;4349399;32;20207;-52
2022/11/23 09:35:24;;;;;;;0.13;0.13;;;;;;;8.82;81.57;94263.47;4316324;32;20207;-56
2022/11/23 09:38:00;;;;;;;0.63;0.47;;;;;;;8.95;80.72;94262.56;4364717;32;20226;-58
2022/11/23 09:40:39;;;;;;;0.20;0.20;;;;;;;8.72;80.57;94263.78;4379658;32;20284;-56
2022/11/23 09:43:42;;;;;;;0.60;0.57;;;;;;;8.70;80.59;94251.94;4341484;32;20181;-58
2022/11/23 09:46:40;;;;;;;3.70;0.63;;;;;;;8.73;80.98;94254.72;4365988;32;20226;-53
2022/11/23 09:49:48;;;;;;;4.67;1.17;;;;;;;8.41;82.28;94255.91;4378972;32;20176;-56
2022/11/23 09:52:20;;;;;;;0.37;0.30;;;;;;;8.76;81.62;94254.13;4344526;32;20192;-55
2022/11/23 09:54:51;;;;;;;0.20;0.13;;;;;;;8.78;81.31;94249.31;4355312;32;20185;-53
2022/11/23 09:57:22;;;;;;;0.13;0.13;;;;;;;8.90;80.58;94252.16;4369780;32;20211;-50
2022/11/23 10:00:25;;;;;;;0.30;0.30;;;;;;;8.39;81.47;94254.63;4373315;32;20193;-54
2022/11/23 10:02:53;;;;;;;0.73;0.63;;;;;;;8.26;82.06;94254.41;4377638;32;20214;-53
2022/11/23 10:05:22;;;;;;;0.10;0.07;;;;;;;8.54;81.73;94248.94;4367175;32;20204;-55
2022/11/23 10:08:31;;;;;;;0.30;0.30;;;;;;;8.88;81.00;94251.69;4328410;32;20213;-57
2022/11/23 10:11:41;;;;;;;1.80;0.30;;;;;;;8.94;80.57;94245.13;4358025;32;20216;-52
2022/11/23 10:14:13;;;;;;;0.27;0.27;;;;;;;9.08;81.24;94252.16;4348108;32;20243;-57
2022/11/23 10:16:41;;;;;;;0.60;0.30;;;;;;;8.88;80.81;94243.75;4350596;32;20215;-55
2022/11/23 10:19:44;;;;;;;0.20;0.20;;;;;;;9.05;80.85;94244.84;4365295;32;20184;-41
2022/11/23 10:22:49;;;;;;;0.63;0.63;;;;;;;13.61;96.52;94230.03;4338662;32;20202;-45
2022/11/23 10:25:24;;;;;;;0.70;0.70;;;;;;;15.24;73.73;94225.28;4341989;32;20314;-42
2022/11/23 10:27:58;;;;;;;0.30;0.30;;;;;;;16.65;63.97;94226.47;4376866;32;20171;-44
2022/11/23 10:30:26;;;;;;;0.63;0.57;;;;;;;17.11;58.11;94221.81;4350185;32;20254;-44
2022/11/23 10:33:21;;;;;;;0.10;0.10;;;;;;;17.38;57.78;94221.78;4372807;32;20185;-57
2022/11/23 10:35:48;;;;;;;0.90;0.90;;;;;;;15.60;51.02;94220.69;4341874;32;20192;-54
2022/11/23 10:38:46;;;;;;;0.93;0.70;;;;;;;14.02;55.03;94220.84;4379602;32;20193;-58
2022/11/23 10:41:15;;;;;;;0.40;0.40;;;;;;;12.79;56.99;94216.22;4389297;32;20267;-57
2022/11/23 10:44:11;;;;;;;0.40;0.40;;;;;;;11.81;62.76;94217.22;4372160;32;20289;-58
2022/11/23 10:46:40;;;;;;;0.17;0.17;;;;;;;11.27;64.90;94212.62;4387604;32;20226;-57
2022/11/23 10:49:14;;;;;;;0.83;0.37;;;;;;;10.43;67.09;94207.53;4357711;32;20193;-59
2022/11/23 10:51:52;;;;;;;2.23;0.77;;;;;;;10.25;66.81;94198.91;4364365;32;20188;-55
2022/11/23 10:54:33;;;;;;;0.20;0.20;;;;;;;10.18;66.67;94207.34;4345292;32;20192;-57
2022/11/23 10:57:01;;;;;;;0.67;0.67;;;;;;;10.21;68.76;94205.94;4346225;32;20305;-58
2022/11/23 10:59:37;;;;;;;0.40;0.37;;;;;;;9.80;72.47;94209.13;4360639;32;20264;-58
2022/11/23 11:02:26;;;;;;;0.20;0.20;;;;;;;9.54;72.06;94212.62;4362557;32;20184;-57
2022/11/23 11:05:31;;;;;;;1.07;1.00;;;;;;;9.79;72.19;94207.59;4312036;32;20193;-51
2022/11/23 11:08:12;;;;;;;0.87;0.83;;;;;;;9.54;71.77;94204.69;4346297;32;20191;-55
2022/11/23 11:10:51;;;;;;;0.10;0.10;;;;;;;9.65;71.95;94197.97;4356865;32;20180;-53
2022/11/23 11:13:31;;;;;;;0.60;0.60;;;;;;;9.71;69.20;94203.88;4331068;32;20208;-55
2022/11/23 11:16:17;;;;;;;0.40;0.40;;;;;;;9.53;70.51;94203.13;4334423;32;20196;-56
2022/11/23 11:18:47;;;;;;;0.60;0.23;;;;;;;9.92;71.01;94196.03;4360375;32;20242;-53
2022/11/23 11:21:39;;;;;;;0.63;0.40;;;;;;;9.90;70.36;94198.22;4349892;32;20189;-58
2022/11/23 11:24:17;;;;;;;0.50;0.50;;;;;;;9.90;70.07;94192.91;4363613;32;20196;-57
2022/11/23 11:26:51;;;;;;;0.00;0.00;;;;;;;9.75;70.11;94194.22;4349821;32;20251;-56
2022/11/23 11:29:44;;;;;;;0.53;0.37;;;;;;;9.96;68.14;94196.97;4368226;32;20225;-57
2022/11/23 11:32:51;;;;;;;2.63;0.70;;;;;;;10.07;69.21;94190.22;4344534;32;20271;-57
2022/11/23 11:35:24;;;;;;;4.93;3.87;;;;;;;10.11;68.71;94191.13;4337076;32;20260;-57
2022/11/23 11:37:51;;;;;;;5.40;3.43;;;;;;;9.91;69.43;94183.88;4345297;32;20251;-57
2022/11/23 11:40:46;;;;;;;0.80;0.80;;;;;;;10.06;69.54;94185.22;4368750;32;20185;-56
2022/11/23 11:43:37;;;;;;;0.47;0.47;;;;;;;10.24;67.77;94186.75;4383613;32;20244;-57
2022/11/23 11:46:20;;;;;;;0.73;0.63;;;;;;;10.13;70.18;94182.88;4382711;32;20256;-55
2022/11/23 11:49:15;;;;;;;0.10;0.10;;;;;;;9.81;69.16;94184.22;4382633;32;20179;-56
2022/11/23 11:51:50;;;;;;;0.73;0.73;;;;;;;10.12;68.50;94181.31;4391232;32;20199;-57
2022/11/23 11:54:50;;;;;;;0.40;0.40;;;;;;;9.94;69.35;94185.91;4351323;32;20196;-56
2022/11/23 11:57:34;;;;;;;0.77;0.30;;;;;;;10.05;68.37;94179.16;4354868;32;20211;-57
2022/11/23 12:00:02;;;;;;;1.97;1.77;;;;;;;9.68;68.01;94182.53;4366108;32;20192;-53